createdAt,value
2023-02-20T00:00:08.917Z,10.40
2023-02-20T00:01:11.527Z,10.20
2023-02-20T00:02:14.166Z,9.30
2023-02-20T00:03:17.739Z,7.80
2023-02-20T00:04:21.767Z,8.90
2023-02-20T00:05:25.261Z,8.10
2023-02-20T00:06:28.926Z,7.50
2023-02-20T00:07:31.650Z,9.50
2023-02-20T00:08:35.803Z,7.60
2023-02-20T00:09:38.781Z,10.10
2023-02-20T00:10:41.905Z,10.10
2023-02-20T00:11:46.457Z,6.80
2023-02-20T00:12:49.527Z,8.40
2023-02-20T00:13:52.028Z,9.60
2023-02-20T00:14:54.583Z,8.60
2023-02-20T00:15:58.383Z,9.00
2023-02-20T00:17:01.772Z,7.50
2023-02-20T00:18:06.458Z,4.30
2023-02-20T00:19:09.209Z,7.80
2023-02-20T00:20:21.165Z,6.50
2023-02-20T00:21:24.471Z,8.70
2023-02-20T00:22:28.161Z,8.82
2023-02-20T00:23:35.299Z,7.20
2023-02-20T00:24:37.788Z,8.20
2023-02-20T00:25:40.184Z,9.50
2023-02-20T00:26:50.234Z,4.00
2023-02-20T00:27:52.948Z,9.40
2023-02-20T00:28:55.950Z,5.10
2023-02-20T00:29:58.626Z,6.40
2023-02-20T00:31:01.768Z,8.30
2023-02-20T00:32:06.309Z,8.20
2023-02-20T00:33:09.094Z,8.70
2023-02-20T00:34:12.438Z,8.60
2023-02-20T00:35:16.631Z,8.80
2023-02-20T00:36:19.838Z,8.50
2023-02-20T00:37:24.471Z,8.30
2023-02-20T00:38:28.418Z,9.30
2023-02-20T00:39:34.078Z,8.50
2023-02-20T00:40:39.280Z,7.50
2023-02-20T00:41:42.483Z,9.50
2023-02-20T00:42:46.102Z,9.70
2023-02-20T00:43:48.720Z,9.90
2023-02-20T00:44:51.372Z,9.30
2023-02-20T00:45:55.461Z,9.73
2023-02-20T00:46:58.399Z,9.80
2023-02-20T00:48:01.979Z,7.00
2023-02-20T00:49:06.869Z,9.00
2023-02-20T00:50:23.329Z,7.60
2023-02-20T00:51:27.135Z,9.00
2023-02-20T00:52:30.070Z,8.60
2023-02-20T00:53:33.081Z,9.20
2023-02-20T00:54:35.590Z,9.80
2023-02-20T00:55:38.552Z,9.80
2023-02-20T00:56:41.807Z,9.73
2023-02-20T00:57:45.217Z,9.60
2023-02-20T00:58:48.347Z,10.00
2023-02-20T00:59:53.892Z,10.80
2023-02-20T01:00:57.437Z,9.50
2023-02-20T01:02:00.868Z,8.00
2023-02-20T01:03:04.811Z,7.90
2023-02-20T01:04:08.467Z,8.30
2023-02-20T01:05:11.075Z,10.10
2023-02-20T01:06:14.575Z,8.10
2023-02-20T01:07:18.694Z,8.82
2023-02-20T01:08:21.267Z,10.00
2023-02-20T01:09:26.326Z,8.30
2023-02-20T01:10:29.174Z,7.60
2023-02-20T01:11:31.938Z,6.40
2023-02-20T01:12:36.311Z,9.20
2023-02-20T01:13:39.084Z,7.60
2023-02-20T01:14:42.230Z,7.70
2023-02-20T01:15:45.237Z,7.50
2023-02-20T01:16:53.456Z,8.00
2023-02-20T01:17:56.866Z,10.60
2023-02-20T01:19:00.117Z,6.90
2023-02-20T01:20:03.562Z,6.18
2023-02-20T01:21:08.731Z,7.00
2023-02-20T01:22:12.403Z,8.10
2023-02-20T01:23:15.368Z,7.00
2023-02-20T01:24:18.311Z,6.36
2023-02-20T01:25:22.918Z,6.20
2023-02-20T01:26:26.729Z,6.60
2023-02-20T01:27:29.922Z,6.40
2023-02-20T01:28:32.647Z,4.30
2023-02-20T01:29:36.760Z,6.60
2023-02-20T01:30:40.258Z,6.70
2023-02-20T01:31:51.615Z,6.40
2023-02-20T01:32:54.959Z,5.30
2023-02-20T01:33:58.310Z,7.40
2023-02-20T01:35:02.197Z,5.40
2023-02-20T01:36:07.478Z,5.70
2023-02-20T01:37:13.188Z,6.60
2023-02-20T01:38:15.984Z,5.90
2023-02-20T01:39:24.812Z,5.70
2023-02-20T01:40:28.210Z,6.40
2023-02-20T01:41:30.712Z,7.00
2023-02-20T01:42:35.747Z,5.80
2023-02-20T01:43:39.401Z,6.60
2023-02-20T01:44:43.668Z,7.09
2023-02-20T01:45:46.473Z,2.90
2023-02-20T01:46:51.716Z,6.91
2023-02-20T01:47:56.495Z,4.80
2023-02-20T01:49:06.504Z,5.20
2023-02-20T01:50:10.169Z,4.90
2023-02-20T01:51:13.464Z,5.10
2023-02-20T01:52:24.423Z,4.20
2023-02-20T01:53:28.308Z,7.00
2023-02-20T01:54:33.169Z,4.70
2023-02-20T01:55:38.459Z,6.40
2023-02-20T01:56:42.715Z,5.50
2023-02-20T01:58:01.039Z,5.30
2023-02-20T01:59:05.063Z,4.60
2023-02-20T02:00:14.449Z,4.20
2023-02-20T02:01:21.832Z,4.50
2023-02-20T02:02:24.544Z,3.50
2023-02-20T02:03:32.838Z,5.50
2023-02-20T02:04:36.802Z,5.10
2023-02-20T02:05:41.586Z,4.00
2023-02-20T02:06:47.716Z,6.00
2023-02-20T02:07:51.292Z,4.50
2023-02-20T02:08:54.874Z,3.50
2023-02-20T02:10:04.515Z,2.60
2023-02-20T02:11:12.586Z,4.40
2023-02-20T02:12:15.080Z,3.40
2023-02-20T02:13:18.348Z,4.30
2023-02-20T02:14:21.294Z,3.50
2023-02-20T02:15:27.030Z,3.20
2023-02-20T02:16:58.489Z,3.70
2023-02-20T02:18:32.003Z,3.90
2023-02-20T02:19:55.010Z,4.50
2023-02-20T02:21:20.748Z,3.20
2023-02-20T02:22:54.290Z,4.00
2023-02-20T02:24:07.474Z,3.10
2023-02-20T02:25:19.331Z,3.60
2023-02-20T02:26:26.037Z,2.20
2023-02-20T02:27:51.355Z,3.00
2023-02-20T02:29:21.319Z,4.20
2023-02-20T02:30:40.982Z,3.20
2023-02-20T02:32:04.093Z,3.00
2023-02-20T02:33:20.807Z,3.90
2023-02-20T02:34:36.017Z,2.10
2023-02-20T02:36:00.648Z,2.40
2023-02-20T02:37:24.033Z,3.00
2023-02-20T02:39:54.780Z,2.50
2023-02-20T02:42:43.420Z,3.00
2023-02-20T02:44:23.258Z,2.20
2023-02-20T02:45:32.181Z,1.90
2023-02-20T02:46:38.602Z,2.40
2023-02-20T02:49:18.856Z,2.50
2023-02-20T02:50:28.495Z,2.10
2023-02-20T02:51:35.104Z,1.90
2023-02-20T02:52:50.327Z,1.90
2023-02-20T02:54:08.083Z,3.50
2023-02-20T02:55:10.784Z,2.00
2023-02-20T02:56:21.199Z,2.00
2023-02-20T02:57:25.772Z,2.90
2023-02-20T02:58:28.309Z,1.90
2023-02-20T02:59:33.106Z,3.00
2023-02-20T03:00:48.046Z,1.70
2023-02-20T03:03:19.741Z,2.80
2023-02-20T03:04:24.997Z,1.90
2023-02-20T03:05:32.954Z,1.10
2023-02-20T03:06:38.083Z,1.50
2023-02-20T03:07:42.171Z,1.50
2023-02-20T03:10:14.135Z,2.10
2023-02-20T03:11:19.518Z,1.50
2023-02-20T03:12:22.636Z,0.40
2023-02-20T03:13:45.595Z,1.00
2023-02-20T03:15:18.978Z,1.60
2023-02-20T03:16:24.786Z,0.20
2023-02-20T03:17:48.892Z,1.90
2023-02-20T03:18:54.973Z,1.10
2023-02-20T03:20:00.239Z,1.50
2023-02-20T03:21:14.852Z,1.00
2023-02-20T03:22:20.912Z,1.80
2023-02-20T03:23:35.535Z,1.00
2023-02-20T03:24:39.808Z,2.00
2023-02-20T03:25:52.350Z,1.30
2023-02-20T03:26:56.104Z,1.40
2023-02-20T03:28:04.433Z,1.10
2023-02-20T03:29:16.330Z,1.30
2023-02-20T03:30:27.765Z,1.00
2023-02-20T03:31:39.542Z,1.00
2023-02-20T03:33:01.715Z,1.00
2023-02-20T03:34:32.467Z,0.80
2023-02-20T03:35:54.991Z,1.80
2023-02-20T03:37:19.814Z,1.50
2023-02-20T03:38:40.734Z,1.00
2023-02-20T03:40:04.427Z,0.20
2023-02-20T03:41:25.844Z,2.00
2023-02-20T03:42:47.226Z,1.30
2023-02-20T03:43:51.514Z,1.40
2023-02-20T03:44:54.272Z,1.30
2023-02-20T03:46:11.156Z,0.73
2023-02-20T03:47:15.746Z,0.00
2023-02-20T03:50:00.440Z,0.80
2023-02-20T03:51:03.836Z,0.90
2023-02-20T03:52:09.295Z,0.90
2023-02-20T03:53:15.326Z,1.00
2023-02-20T03:54:19.272Z,0.50
2023-02-20T03:55:24.057Z,0.80
2023-02-20T03:56:32.226Z,1.40
2023-02-20T03:57:38.608Z,1.10
2023-02-20T03:58:44.520Z,0.70
2023-02-20T03:59:55.191Z,0.90
2023-02-20T04:00:59.432Z,1.00
2023-02-20T04:02:06.178Z,0.80
2023-02-20T04:03:12.609Z,0.70
2023-02-20T04:04:21.955Z,0.50
2023-02-20T04:05:30.276Z,0.00
2023-02-20T04:06:34.134Z,0.50
2023-02-20T04:09:08.674Z,0.30
2023-02-20T04:10:16.556Z,0.60
2023-02-20T04:11:33.188Z,0.20
2023-02-20T04:12:40.531Z,0.90
2023-02-20T04:13:43.701Z,0.10
2023-02-20T04:14:47.218Z,1.00
2023-02-20T04:15:50.412Z,0.50
2023-02-20T04:16:55.977Z,1.18
2023-02-20T04:18:09.618Z,0.90
2023-02-20T04:19:12.612Z,0.50
2023-02-20T04:20:17.122Z,1.30
2023-02-20T04:21:25.148Z,0.50
2023-02-20T04:22:29.717Z,0.20
2023-02-20T04:23:35.218Z,1.50
2023-02-20T04:24:44.046Z,0.70
2023-02-20T04:27:15.773Z,1.00
2023-02-20T04:28:20.459Z,0.00
2023-02-20T04:29:27.895Z,1.70
2023-02-20T04:30:32.193Z,1.60
2023-02-20T04:31:35.173Z,1.70
2023-02-20T04:32:38.634Z,2.10
2023-02-20T04:33:43.114Z,0.80
2023-02-20T04:34:48.008Z,1.50
2023-02-20T04:35:51.693Z,2.10
2023-02-20T04:37:02.131Z,3.10
2023-02-20T04:38:05.520Z,0.80
2023-02-20T04:39:08.099Z,2.80
2023-02-20T04:40:12.599Z,2.40
2023-02-20T04:41:15.912Z,3.00
2023-02-20T04:42:18.942Z,3.10
2023-02-20T04:43:21.830Z,3.40
2023-02-20T04:44:34.620Z,2.40
2023-02-20T04:45:39.101Z,3.90
2023-02-20T04:46:42.398Z,1.10
2023-02-20T04:47:46.094Z,3.60
2023-02-20T04:48:49.160Z,3.70
2023-02-20T04:49:52.096Z,4.00
2023-02-20T04:50:56.533Z,3.40
2023-02-20T04:52:00.487Z,2.80
2023-02-20T04:53:03.207Z,2.60
2023-02-20T04:54:05.913Z,3.55
2023-02-20T04:55:09.380Z,3.90
2023-02-20T04:56:14.605Z,2.20
2023-02-20T04:57:19.132Z,3.00
2023-02-20T04:58:22.516Z,2.60
2023-02-20T04:59:28.032Z,3.40
2023-02-20T05:00:30.857Z,3.30
2023-02-20T05:01:33.406Z,2.90
2023-02-20T05:02:39.241Z,1.90
2023-02-20T05:03:42.839Z,3.60
2023-02-20T05:04:45.299Z,3.10
2023-02-20T05:05:48.899Z,3.91
2023-02-20T05:06:54.014Z,3.70
2023-02-20T05:07:57.996Z,3.70
2023-02-20T05:09:00.596Z,2.60
2023-02-20T05:10:03.431Z,3.27
2023-02-20T05:11:05.746Z,4.30
2023-02-20T05:12:09.312Z,4.60
2023-02-20T05:13:12.378Z,4.80
2023-02-20T05:14:15.581Z,4.20
2023-02-20T05:15:19.022Z,3.40
2023-02-20T05:16:23.086Z,3.80
2023-02-20T05:17:26.704Z,1.90
2023-02-20T05:18:29.568Z,4.80
2023-02-20T05:19:32.689Z,3.55
2023-02-20T05:20:54.364Z,3.50
2023-02-20T05:22:15.839Z,4.90
2023-02-20T05:23:18.737Z,4.20
2023-02-20T05:24:21.555Z,3.90
2023-02-20T05:25:24.154Z,4.27
2023-02-20T05:26:27.622Z,3.90
2023-02-20T05:27:30.664Z,5.45
2023-02-20T05:28:33.235Z,3.40
2023-02-20T05:29:35.683Z,4.70
2023-02-20T05:30:38.536Z,4.91
2023-02-20T05:31:41.233Z,3.20
2023-02-20T05:32:43.742Z,6.40
2023-02-20T05:33:46.978Z,4.90
2023-02-20T05:34:49.459Z,4.20
2023-02-20T05:35:52.729Z,4.50
2023-02-20T05:36:57.324Z,5.00
2023-02-20T05:38:00.456Z,3.60
2023-02-20T05:39:05.223Z,4.00
2023-02-20T05:40:08.839Z,3.80
2023-02-20T05:41:12.414Z,4.80
2023-02-20T05:42:15.042Z,5.80
2023-02-20T05:43:18.359Z,4.64
2023-02-20T05:44:21.191Z,3.10
2023-02-20T05:45:23.758Z,5.80
2023-02-20T05:46:26.618Z,6.27
2023-02-20T05:47:29.594Z,5.50
2023-02-20T05:48:32.859Z,5.50
2023-02-20T05:49:36.019Z,5.50
2023-02-20T05:50:39.507Z,5.00
2023-02-20T05:51:43.906Z,4.20
2023-02-20T05:52:46.462Z,6.10
2023-02-20T05:53:50.312Z,6.90
2023-02-20T05:54:54.054Z,7.50
2023-02-20T05:55:56.654Z,5.70
2023-02-20T05:57:01.752Z,5.40
2023-02-20T05:58:04.732Z,5.20
2023-02-20T05:59:08.530Z,5.20
2023-02-20T06:00:13.160Z,5.40
2023-02-20T06:01:17.483Z,6.60
2023-02-20T06:02:19.933Z,5.60
2023-02-20T06:03:22.384Z,6.20
2023-02-20T06:04:24.953Z,7.60
2023-02-20T06:05:29.842Z,6.55
2023-02-20T06:06:33.929Z,6.90
2023-02-20T06:07:37.302Z,7.90
2023-02-20T06:08:40.689Z,6.50
2023-02-20T06:09:44.852Z,7.00
2023-02-20T06:10:48.829Z,7.00
2023-02-20T06:11:55.067Z,6.10
2023-02-20T06:12:57.574Z,5.90
2023-02-20T06:14:00.419Z,7.40
2023-02-20T06:15:03.439Z,7.91
2023-02-20T06:16:07.050Z,7.50
2023-02-20T06:17:09.710Z,7.10
2023-02-20T06:18:13.299Z,5.70
2023-02-20T06:20:33.461Z,6.90
2023-02-20T06:21:37.052Z,6.70
2023-02-20T06:22:39.430Z,8.50
2023-02-20T06:23:45.161Z,8.30
2023-02-20T06:24:47.876Z,7.40
2023-02-20T06:25:50.450Z,7.00
2023-02-20T06:26:53.643Z,9.10
2023-02-20T06:27:56.303Z,8.30
2023-02-20T06:28:59.285Z,2.40
2023-02-20T06:30:02.362Z,9.90
2023-02-20T06:31:07.200Z,9.70
2023-02-20T06:32:10.113Z,10.60
2023-02-20T06:33:13.347Z,11.10
2023-02-20T06:34:16.090Z,11.50
2023-02-20T06:35:18.902Z,9.00
2023-02-20T06:36:28.308Z,11.10
2023-02-20T06:37:30.886Z,11.10
2023-02-20T06:38:34.307Z,11.30
2023-02-20T06:39:37.942Z,9.80
2023-02-20T06:40:40.579Z,12.30
2023-02-20T06:41:43.907Z,9.40
2023-02-20T06:42:47.565Z,11.90
2023-02-20T06:43:50.382Z,10.40
2023-02-20T06:44:52.855Z,11.18
2023-02-20T06:45:56.262Z,11.90
2023-02-20T06:47:00.040Z,14.10
2023-02-20T06:48:03.294Z,10.30
2023-02-20T06:49:06.172Z,13.40
2023-02-20T06:50:09.691Z,11.20
2023-02-20T06:51:13.137Z,8.60
2023-02-20T06:52:15.638Z,11.80
2023-02-20T06:53:18.879Z,9.10
2023-02-20T06:54:22.423Z,11.20
2023-02-20T06:55:25.347Z,8.50
2023-02-20T06:56:30.962Z,9.90
2023-02-20T06:57:33.514Z,9.20
2023-02-20T06:58:37.087Z,10.90
2023-02-20T06:59:41.116Z,8.40
2023-02-20T07:00:44.211Z,8.40
2023-02-20T07:01:46.714Z,9.20
2023-02-20T07:02:50.179Z,8.50
2023-02-20T07:03:54.400Z,10.50
2023-02-20T07:04:58.637Z,9.70
2023-02-20T07:06:01.473Z,10.30
2023-02-20T07:07:04.364Z,9.40
2023-02-20T07:08:07.911Z,9.40
2023-02-20T07:09:10.576Z,9.80
2023-02-20T07:10:13.751Z,10.10
2023-02-20T07:11:17.691Z,5.80
2023-02-20T07:12:20.417Z,9.30
2023-02-20T07:13:23.007Z,10.40
2023-02-20T07:14:25.579Z,8.40
2023-02-20T07:15:28.148Z,10.20
2023-02-20T07:16:31.005Z,8.20
2023-02-20T07:17:34.219Z,8.50
2023-02-20T07:18:36.887Z,8.40
2023-02-20T07:19:39.472Z,8.80
2023-02-20T07:20:42.691Z,10.20
2023-02-20T07:21:46.972Z,7.00
2023-02-20T07:22:51.866Z,10.00
2023-02-20T07:23:55.337Z,7.40
2023-02-20T07:24:59.382Z,7.10
2023-02-20T07:26:02.313Z,8.10
2023-02-20T07:27:06.416Z,9.91
2023-02-20T07:28:09.046Z,11.00
2023-02-20T07:29:12.884Z,11.64
2023-02-20T07:30:17.332Z,10.50
2023-02-20T07:31:20.300Z,10.80
2023-02-20T07:32:23.268Z,11.20
2023-02-20T07:33:26.298Z,11.50
2023-02-20T07:34:28.747Z,10.30
2023-02-20T07:35:31.954Z,12.40
2023-02-20T07:36:36.526Z,10.70
2023-02-20T07:37:40.745Z,10.90
2023-02-20T07:38:46.686Z,10.09
2023-02-20T07:39:49.241Z,10.80
2023-02-20T07:40:53.096Z,11.55
2023-02-20T07:41:56.679Z,12.10
2023-02-20T07:43:10.095Z,12.10
2023-02-20T07:44:14.638Z,12.30
2023-02-20T07:45:17.615Z,11.90
2023-02-20T07:46:20.841Z,13.10
2023-02-20T07:47:23.782Z,13.80
2023-02-20T07:48:26.878Z,13.40
2023-02-20T07:49:29.704Z,13.20
2023-02-20T07:50:32.479Z,13.09
2023-02-20T07:51:35.263Z,10.30
2023-02-20T07:52:37.689Z,13.50
2023-02-20T07:53:42.912Z,13.80
2023-02-20T07:54:46.527Z,15.30
2023-02-20T07:55:49.232Z,11.40
2023-02-20T07:56:52.952Z,14.73
2023-02-20T07:57:57.703Z,15.20
2023-02-20T07:59:01.168Z,15.60
2023-02-20T08:00:05.707Z,13.40
2023-02-20T08:01:10.534Z,16.60
2023-02-20T08:02:13.631Z,13.36
2023-02-20T08:03:16.914Z,17.90
2023-02-20T08:04:19.656Z,15.60
2023-02-20T08:05:23.222Z,17.10
2023-02-20T08:06:28.497Z,15.80
2023-02-20T08:07:30.985Z,13.40
2023-02-20T08:08:33.797Z,16.36
2023-02-20T08:09:36.337Z,13.50
2023-02-20T08:10:39.782Z,13.70
2023-02-20T08:11:42.438Z,8.50
2023-02-20T08:12:46.284Z,4.30
2023-02-20T08:13:48.971Z,0.40
2023-02-20T08:14:51.595Z,1.00
2023-02-20T08:15:55.249Z,1.36
2023-02-20T08:16:58.165Z,3.50
2023-02-20T08:18:00.649Z,2.80
2023-02-20T08:19:04.045Z,2.55
2023-02-20T08:20:08.967Z,2.90
2023-02-20T08:21:11.564Z,3.90
2023-02-20T08:22:14.139Z,2.91
2023-02-20T08:23:19.218Z,2.40
2023-02-20T08:24:21.954Z,1.40
2023-02-20T08:25:24.600Z,3.00
2023-02-20T08:26:27.604Z,2.00
2023-02-20T08:27:31.220Z,2.45
2023-02-20T08:28:34.869Z,2.30
2023-02-20T08:29:38.182Z,2.50
2023-02-20T08:30:41.033Z,2.40
2023-02-20T08:31:43.901Z,2.00
2023-02-20T08:32:46.515Z,2.00
2023-02-20T08:33:49.358Z,1.09
2023-02-20T08:34:54.304Z,2.10
2023-02-20T08:35:59.099Z,0.80
2023-02-20T08:37:02.204Z,2.30
2023-02-20T08:38:05.783Z,2.80
2023-02-20T08:39:08.455Z,1.60
2023-02-20T08:40:14.220Z,2.00
2023-02-20T08:41:17.064Z,0.70
2023-02-20T08:42:20.186Z,1.20
2023-02-20T08:43:27.914Z,1.80
2023-02-20T08:44:29.864Z,2.20
2023-02-20T08:45:32.600Z,1.00
2023-02-20T08:46:35.400Z,1.00
2023-02-20T08:47:38.579Z,1.20
2023-02-20T08:48:42.587Z,2.50
2023-02-20T08:49:47.479Z,1.00
2023-02-20T08:50:50.280Z,1.60
2023-02-20T08:51:54.581Z,1.50
2023-02-20T08:52:57.109Z,1.00
2023-02-20T08:53:59.672Z,1.80
2023-02-20T08:55:02.715Z,1.00
2023-02-20T08:56:09.314Z,1.40
2023-02-20T08:57:13.416Z,0.50
2023-02-20T08:58:22.633Z,1.50
2023-02-20T08:59:26.329Z,0.60
2023-02-20T09:00:29.139Z,1.00
2023-02-20T09:01:31.837Z,1.45
2023-02-20T09:02:34.643Z,1.30
2023-02-20T09:03:42.800Z,0.73
2023-02-20T09:04:45.822Z,1.00
2023-02-20T09:05:49.454Z,1.36
2023-02-20T09:06:52.326Z,1.40
2023-02-20T09:07:56.287Z,1.00
2023-02-20T09:08:59.945Z,1.00
2023-02-20T09:10:03.365Z,0.70
2023-02-20T09:11:09.781Z,0.70
2023-02-20T09:12:13.002Z,0.90
2023-02-20T09:13:15.875Z,1.30
2023-02-20T09:14:18.456Z,1.00
2023-02-20T09:15:22.244Z,0.90
2023-02-20T09:16:26.993Z,1.00
2023-02-20T09:17:32.078Z,0.60
2023-02-20T09:18:35.363Z,0.20
2023-02-20T09:19:38.013Z,1.00
2023-02-20T09:20:41.940Z,0.50
2023-02-20T09:21:47.870Z,0.00
2023-02-20T09:22:50.661Z,1.00
2023-02-20T09:23:53.114Z,0.70
2023-02-20T09:24:55.645Z,0.20
2023-02-20T09:25:58.284Z,0.60
2023-02-20T09:27:02.948Z,0.70
2023-02-20T09:28:08.340Z,0.90
2023-02-20T09:29:11.377Z,1.00
2023-02-20T09:30:17.784Z,1.00
2023-02-20T09:31:20.965Z,1.00
2023-02-20T09:32:24.056Z,0.70
2023-02-20T09:33:27.326Z,0.18
2023-02-20T09:34:31.002Z,0.82
2023-02-20T09:35:34.121Z,1.50
2023-02-20T09:36:36.901Z,1.00
2023-02-20T09:37:39.780Z,0.00
2023-02-20T09:38:43.264Z,1.00
2023-02-20T09:39:46.523Z,0.50
2023-02-20T09:40:49.950Z,0.50
2023-02-20T09:43:22.504Z,0.30
2023-02-20T09:45:03.843Z,0.50
2023-02-20T09:46:19.244Z,0.50
2023-02-20T09:47:25.643Z,0.80
2023-02-20T09:48:41.355Z,0.10
2023-02-20T09:49:44.856Z,0.90
2023-02-20T09:50:53.432Z,0.40
2023-02-20T09:51:57.884Z,0.20
2023-02-20T09:54:25.635Z,0.60
2023-02-20T09:55:30.322Z,0.50
2023-02-20T09:56:42.794Z,1.00
2023-02-20T09:57:47.820Z,0.00
2023-02-20T09:58:54.300Z,0.70
2023-02-20T10:00:06.765Z,0.70
2023-02-20T10:01:12.064Z,0.50
2023-02-20T10:02:18.749Z,2.30
2023-02-20T10:03:40.686Z,1.40
2023-02-20T10:06:01.042Z,3.60
2023-02-20T10:08:34.179Z,3.60
2023-02-20T10:09:37.086Z,2.70
2023-02-20T10:10:41.410Z,2.00
2023-02-20T10:13:33.281Z,2.80
2023-02-20T10:16:29.023Z,2.70
2023-02-20T10:17:41.643Z,3.70
2023-02-20T10:20:07.780Z,2.90
2023-02-20T10:21:26.495Z,3.80
2023-02-20T10:22:34.968Z,1.40
2023-02-20T10:23:51.374Z,2.20
2023-02-20T10:25:01.826Z,1.80
2023-02-20T10:26:07.933Z,1.40
2023-02-20T10:28:33.466Z,3.40
2023-02-20T10:29:36.515Z,2.50
2023-02-20T10:30:41.787Z,1.90
2023-02-20T10:31:55.215Z,1.00
2023-02-20T10:34:37.818Z,2.10
2023-02-20T10:35:54.690Z,2.90
2023-02-20T10:37:03.489Z,2.00
2023-02-20T10:38:09.092Z,2.50
2023-02-20T10:39:19.499Z,1.80
2023-02-20T10:40:31.018Z,1.90
2023-02-20T10:41:47.625Z,3.90
2023-02-20T10:43:02.788Z,2.80
2023-02-20T10:44:14.005Z,2.50
2023-02-20T10:45:27.747Z,2.30
2023-02-20T10:46:48.305Z,3.30
2023-02-20T10:49:02.120Z,1.80
2023-02-20T10:50:09.058Z,2.70
2023-02-20T10:51:19.835Z,1.90
2023-02-20T10:53:50.631Z,2.30
2023-02-20T10:54:58.622Z,2.60
2023-02-20T10:56:05.405Z,2.80
2023-02-20T10:57:29.256Z,0.00
2023-02-20T10:58:38.720Z,2.40
2023-02-20T10:59:56.466Z,3.50
2023-02-20T11:01:07.971Z,0.80
2023-02-20T11:02:15.569Z,1.70
2023-02-20T11:03:37.265Z,2.20
2023-02-20T11:04:42.494Z,2.70
2023-02-20T11:05:49.105Z,2.40
2023-02-20T11:07:10.391Z,0.70
2023-02-20T11:08:19.540Z,0.00
2023-02-20T11:09:25.930Z,1.80
2023-02-20T11:10:30.295Z,1.80
2023-02-20T11:12:56.192Z,1.50
2023-02-20T11:14:04.632Z,1.00
2023-02-20T11:16:43.356Z,2.00
2023-02-20T11:17:49.978Z,1.90
2023-02-20T11:18:59.083Z,1.90
2023-02-20T11:20:04.692Z,1.50
2023-02-20T11:21:08.952Z,0.40
2023-02-20T11:22:12.106Z,2.10
2023-02-20T11:24:55.340Z,0.80
2023-02-20T11:26:18.038Z,1.70
2023-02-20T11:27:21.626Z,1.00
2023-02-20T11:28:26.830Z,1.80
2023-02-20T11:29:46.283Z,2.20
2023-02-20T11:32:30.292Z,1.00
2023-02-20T11:33:35.572Z,1.00
2023-02-20T11:34:38.491Z,0.40
2023-02-20T11:35:42.317Z,2.00
2023-02-20T11:36:46.846Z,1.10
2023-02-20T11:37:55.881Z,0.60
2023-02-20T11:38:58.743Z,1.00
2023-02-20T11:40:03.542Z,2.10
2023-02-20T11:41:25.816Z,1.80
2023-02-20T11:42:35.228Z,1.80
2023-02-20T11:43:43.540Z,1.40
2023-02-20T11:44:46.277Z,2.30
2023-02-20T11:45:48.780Z,2.30
2023-02-20T11:47:22.201Z,2.00
2023-02-20T11:48:25.924Z,1.40
2023-02-20T11:49:29.113Z,2.00
2023-02-20T11:50:51.124Z,2.00
2023-02-20T11:51:53.711Z,2.20
2023-02-20T11:53:04.716Z,2.00
2023-02-20T11:55:27.601Z,2.20
2023-02-20T11:56:30.373Z,2.10
2023-02-20T11:57:34.986Z,1.90
2023-02-20T11:58:38.972Z,2.30
2023-02-20T11:59:42.867Z,1.90
2023-02-20T12:00:50.046Z,1.00
2023-02-20T12:02:00.806Z,0.20
2023-02-20T12:03:10.733Z,1.10
2023-02-20T12:04:18.702Z,2.20
2023-02-20T12:05:24.157Z,2.40
2023-02-20T12:06:38.757Z,2.20
2023-02-20T12:07:58.932Z,2.20
2023-02-20T12:09:03.289Z,2.20
2023-02-20T12:10:33.660Z,2.20
2023-02-20T12:11:36.793Z,3.90
2023-02-20T12:12:39.411Z,3.55
2023-02-20T12:13:45.447Z,3.82
2023-02-20T12:16:22.392Z,4.00
2023-02-20T12:19:19.913Z,5.50
2023-02-20T12:20:26.523Z,5.20
2023-02-20T12:21:52.563Z,6.10
2023-02-20T12:24:51.521Z,5.10
2023-02-20T12:27:43.174Z,5.50
2023-02-20T12:30:20.703Z,6.60
2023-02-20T12:31:39.721Z,9.40
2023-02-20T12:33:12.496Z,6.50
2023-02-20T12:34:30.717Z,7.60
2023-02-20T12:35:38.529Z,7.40
2023-02-20T12:38:23.686Z,4.90
2023-02-20T12:39:47.759Z,6.80
2023-02-20T12:42:38.568Z,6.80
2023-02-20T12:44:14.516Z,6.40
2023-02-20T12:45:20.784Z,7.80
2023-02-20T12:46:26.559Z,6.60
2023-02-20T12:47:31.966Z,6.50
2023-02-20T12:49:10.788Z,7.10
2023-02-20T12:50:46.720Z,8.40
2023-02-20T12:51:56.009Z,8.00
2023-02-20T12:53:25.286Z,6.90
2023-02-20T12:54:35.580Z,6.10
2023-02-20T12:55:46.499Z,8.30
2023-02-20T12:57:07.143Z,7.80
2023-02-20T12:58:39.155Z,4.70
2023-02-20T12:59:59.698Z,10.80
2023-02-20T13:01:09.632Z,11.80
2023-02-20T13:02:41.334Z,7.40
2023-02-20T13:03:43.846Z,14.00
2023-02-20T13:04:48.318Z,12.70
2023-02-20T13:05:53.853Z,7.70
2023-02-20T13:07:03.896Z,13.90
2023-02-20T13:08:16.227Z,13.40
2023-02-20T13:10:50.634Z,14.50
2023-02-20T13:13:09.311Z,13.20
2023-02-20T13:14:16.472Z,12.50
2023-02-20T13:15:43.612Z,12.30
2023-02-20T13:17:02.431Z,6.90
2023-02-20T13:19:48.143Z,7.80
2023-02-20T13:20:55.067Z,6.40
2023-02-20T13:21:57.615Z,7.00
2023-02-20T13:23:17.825Z,6.10
2023-02-20T13:24:24.825Z,5.00
2023-02-20T13:25:41.129Z,6.70
2023-02-20T13:26:51.842Z,5.40
2023-02-20T13:28:01.168Z,5.00
2023-02-20T13:29:17.796Z,5.20
2023-02-20T13:30:22.225Z,4.50
2023-02-20T13:32:51.609Z,4.90
2023-02-20T13:34:10.671Z,4.80
2023-02-20T13:36:49.495Z,4.20
2023-02-20T13:37:53.884Z,4.20
2023-02-20T13:39:22.257Z,3.40
2023-02-20T13:40:32.289Z,2.70
2023-02-20T13:43:17.494Z,3.70
2023-02-20T13:44:39.506Z,4.90
2023-02-20T13:45:44.085Z,4.00
2023-02-20T13:48:29.573Z,4.50
2023-02-20T13:49:48.533Z,4.00
2023-02-20T13:51:13.389Z,3.60
2023-02-20T13:52:39.047Z,4.00
2023-02-20T13:54:05.445Z,3.90
2023-02-20T13:55:15.552Z,7.30
2023-02-20T13:56:26.848Z,9.20
2023-02-20T13:57:37.143Z,6.10
2023-02-20T13:58:39.981Z,8.40
2023-02-20T13:59:44.051Z,8.09
2023-02-20T14:00:51.795Z,7.90
2023-02-20T14:02:04.710Z,8.60
2023-02-20T14:03:12.843Z,9.10
2023-02-20T14:04:19.109Z,7.80
2023-02-20T14:06:52.798Z,7.40
2023-02-20T14:07:45.517Z,14.70
2023-02-20T14:08:48.805Z,6.82
2023-02-20T14:10:06.895Z,11.60
2023-02-20T14:12:35.493Z,12.00
2023-02-20T14:13:41.175Z,12.20
2023-02-20T14:14:44.754Z,12.40
2023-02-20T14:17:16.165Z,9.70
2023-02-20T14:19:38.604Z,10.10
2023-02-20T14:20:41.297Z,0.90
2023-02-20T14:21:43.950Z,6.30
2023-02-20T14:22:46.917Z,6.20
2023-02-20T14:23:50.102Z,6.36
2023-02-20T14:25:04.517Z,7.00
2023-02-20T14:27:43.068Z,5.70
2023-02-20T14:28:47.479Z,3.40
2023-02-20T14:31:27.724Z,6.20
2023-02-20T14:32:31.006Z,5.10
2023-02-20T14:33:34.186Z,7.40
2023-02-20T14:34:50.316Z,5.60
2023-02-20T14:36:05.583Z,6.50
2023-02-20T14:37:15.448Z,8.40
2023-02-20T14:38:30.405Z,7.60
2023-02-20T14:41:10.830Z,4.70
2023-02-20T14:42:18.597Z,6.00
2023-02-20T14:43:22.571Z,7.60
2023-02-20T14:44:27.827Z,8.20
2023-02-20T14:45:31.446Z,6.10
2023-02-20T14:46:35.712Z,9.00
2023-02-20T14:49:16.469Z,9.10
2023-02-20T14:50:25.417Z,8.00
2023-02-20T14:51:28.020Z,9.40
2023-02-20T14:52:30.454Z,8.80
2023-02-20T14:53:33.824Z,6.50
2023-02-20T14:54:38.199Z,7.40
2023-02-20T14:55:42.233Z,7.90
2023-02-20T14:56:46.879Z,6.50
2023-02-20T14:57:49.792Z,8.80
2023-02-20T14:58:52.784Z,7.00
2023-02-20T15:00:20.188Z,7.09
2023-02-20T15:01:28.082Z,7.60
2023-02-20T15:02:34.633Z,7.20
2023-02-20T15:03:38.460Z,6.30
2023-02-20T15:06:04.145Z,5.90
2023-02-20T15:07:07.357Z,8.00
2023-02-20T15:08:24.894Z,7.70
2023-02-20T15:10:55.765Z,8.80
2023-02-20T15:12:02.954Z,7.60
2023-02-20T15:13:12.014Z,7.70
2023-02-20T15:15:36.542Z,8.30
2023-02-20T15:16:39.659Z,9.10
2023-02-20T15:17:43.920Z,8.30
2023-02-20T15:18:49.975Z,9.60
2023-02-20T15:19:51.905Z,11.50
2023-02-20T15:20:54.770Z,9.91
2023-02-20T15:21:57.817Z,9.36
2023-02-20T15:23:25.017Z,9.50
2023-02-20T15:24:36.705Z,11.30
2023-02-20T15:25:39.866Z,10.10
2023-02-20T15:26:43.221Z,13.30
2023-02-20T15:29:46.413Z,12.00
2023-02-20T15:31:09.993Z,15.40
2023-02-20T15:32:23.767Z,18.00
2023-02-20T15:33:27.180Z,16.10
2023-02-20T15:34:34.169Z,17.20
2023-02-20T15:35:37.768Z,19.80
2023-02-20T15:36:41.078Z,21.70
2023-02-20T15:37:49.613Z,21.64
2023-02-20T15:38:54.151Z,23.50
2023-02-20T15:41:21.613Z,28.70
2023-02-20T15:42:25.083Z,31.00
2023-02-20T15:43:48.008Z,28.45
2023-02-20T15:44:33.552Z,28.70
2023-02-20T15:45:38.090Z,32.50
2023-02-20T15:46:41.024Z,30.90
2023-02-20T15:47:43.997Z,28.20
2023-02-20T15:48:47.084Z,25.80
2023-02-20T15:49:50.119Z,29.00
2023-02-20T15:50:56.741Z,29.10
2023-02-20T15:52:08.994Z,29.10
2023-02-20T15:53:07.444Z,25.80
2023-02-20T15:54:16.588Z,29.90
2023-02-20T15:55:21.433Z,28.60
2023-02-20T15:56:31.120Z,32.40
2023-02-20T15:57:33.738Z,28.40
2023-02-20T15:58:37.553Z,29.64
2023-02-20T15:59:40.103Z,31.00
2023-02-20T16:00:43.675Z,29.80
2023-02-20T16:01:46.819Z,30.45
2023-02-20T16:02:49.914Z,29.70